sensor_id;sensor_type;location;lat;lon;timestamp;P1;durP1;ratioP1;P2;durP2;ratioP2
60999;SDS011;46879;45.658;11.814;2023-02-22T00:01:15;17.65;;;13.02;;
60999;SDS011;46879;45.658;11.814;2023-02-22T00:06:34;16.80;;;12.65;;
60999;SDS011;46879;45.658;11.814;2023-02-22T00:11:34;16.63;;;12.52;;
60999;SDS011;46879;45.658;11.814;2023-02-22T00:16:37;18.75;;;12.63;;
60999;SDS011;46879;45.658;11.814;2023-02-22T00:21:38;19.83;;;12.75;;
60999;SDS011;46879;45.658;11.814;2023-02-22T00:26:38;20.85;;;12.57;;
60999;SDS011;46879;45.658;11.814;2023-02-22T00:31:39;15.25;;;11.88;;
60999;SDS011;46879;45.658;11.814;2023-02-22T00:36:46;14.55;;;11.98;;
60999;SDS011;46879;45.658;11.814;2023-02-22T00:41:47;18.85;;;12.50;;
60999;SDS011;46879;45.658;11.814;2023-02-22T00:46:48;17.17;;;12.18;;
60999;SDS011;46879;45.658;11.814;2023-02-22T00:51:49;13.27;;;10.98;;
60999;SDS011;46879;45.658;11.814;2023-02-22T00:56:49;14.65;;;10.85;;
60999;SDS011;46879;45.658;11.814;2023-02-22T01:01:50;18.25;;;11.77;;
60999;SDS011;46879;45.658;11.814;2023-02-22T01:06:51;15.73;;;11.63;;
60999;SDS011;46879;45.658;11.814;2023-02-22T01:11:53;15.77;;;11.70;;
60999;SDS011;46879;45.658;11.814;2023-02-22T01:16:55;15.82;;;11.90;;
60999;SDS011;46879;45.658;11.814;2023-02-22T01:21:56;13.85;;;11.43;;
60999;SDS011;46879;45.658;11.814;2023-02-22T01:26:57;17.85;;;11.15;;
60999;SDS011;46879;45.658;11.814;2023-02-22T01:31:58;14.68;;;10.98;;
60999;SDS011;46879;45.658;11.814;2023-02-22T01:37:00;14.48;;;11.00;;
60999;SDS011;46879;45.658;11.814;2023-02-22T01:42:01;12.38;;;10.30;;
60999;SDS011;46879;45.658;11.814;2023-02-22T01:47:02;16.92;;;11.40;;
60999;SDS011;46879;45.658;11.814;2023-02-22T01:52:05;14.10;;;10.43;;
60999;SDS011;46879;45.658;11.814;2023-02-22T02:02:21;13.40;;;10.23;;
60999;SDS011;46879;45.658;11.814;2023-02-22T02:07:24;15.52;;;10.82;;
60999;SDS011;46879;45.658;11.814;2023-02-22T02:12:24;12.77;;;9.80;;
60999;SDS011;46879;45.658;11.814;2023-02-22T02:17:29;15.82;;;10.50;;
60999;SDS011;46879;45.658;11.814;2023-02-22T02:22:37;11.98;;;9.43;;
60999;SDS011;46879;45.658;11.814;2023-02-22T02:38:38;14.52;;;10.77;;
60999;SDS011;46879;45.658;11.814;2023-02-22T02:49:14;12.77;;;9.50;;
60999;SDS011;46879;45.658;11.814;2023-02-22T02:59:23;12.45;;;9.18;;
60999;SDS011;46879;45.658;11.814;2023-02-22T03:04:36;13.30;;;9.15;;
60999;SDS011;46879;45.658;11.814;2023-02-22T03:10:19;12.23;;;9.65;;
60999;SDS011;46879;45.658;11.814;2023-02-22T03:15:32;11.50;;;9.73;;
60999;SDS011;46879;45.658;11.814;2023-02-22T03:26:21;12.93;;;9.52;;
60999;SDS011;46879;45.658;11.814;2023-02-22T03:31:37;12.50;;;9.00;;
60999;SDS011;46879;45.658;11.814;2023-02-22T03:36:43;13.65;;;9.52;;
60999;SDS011;46879;45.658;11.814;2023-02-22T03:41:49;10.82;;;9.05;;
60999;SDS011;46879;45.658;11.814;2023-02-22T03:46:50;12.10;;;8.93;;
60999;SDS011;46879;45.658;11.814;2023-02-22T03:51:55;12.23;;;9.05;;
60999;SDS011;46879;45.658;11.814;2023-02-22T03:56:57;12.10;;;8.82;;
60999;SDS011;46879;45.658;11.814;2023-02-22T04:02:22;14.32;;;9.45;;
60999;SDS011;46879;45.658;11.814;2023-02-22T04:07:23;10.77;;;9.27;;
60999;SDS011;46879;45.658;11.814;2023-02-22T04:12:24;11.05;;;9.27;;
60999;SDS011;46879;45.658;11.814;2023-02-22T04:17:24;11.27;;;8.48;;
60999;SDS011;46879;45.658;11.814;2023-02-22T04:22:25;9.70;;;8.35;;
60999;SDS011;46879;45.658;11.814;2023-02-22T04:27:25;11.88;;;9.30;;
60999;SDS011;46879;45.658;11.814;2023-02-22T04:32:26;12.10;;;8.90;;
60999;SDS011;46879;45.658;11.814;2023-02-22T04:37:26;10.88;;;8.93;;
60999;SDS011;46879;45.658;11.814;2023-02-22T04:42:27;10.52;;;9.15;;
60999;SDS011;46879;45.658;11.814;2023-02-22T04:47:28;9.77;;;8.43;;
60999;SDS011;46879;45.658;11.814;2023-02-22T04:52:28;13.90;;;8.65;;
60999;SDS011;46879;45.658;11.814;2023-02-22T04:57:29;10.77;;;8.63;;
60999;SDS011;46879;45.658;11.814;2023-02-22T05:02:30;10.98;;;9.02;;
60999;SDS011;46879;45.658;11.814;2023-02-22T05:07:31;9.73;;;7.78;;
60999;SDS011;46879;45.658;11.814;2023-02-22T05:12:31;11.00;;;8.82;;
60999;SDS011;46879;45.658;11.814;2023-02-22T05:17:32;10.80;;;9.05;;
60999;SDS011;46879;45.658;11.814;2023-02-22T05:22:34;10.98;;;8.68;;
60999;SDS011;46879;45.658;11.814;2023-02-22T05:27:35;10.68;;;8.40;;
60999;SDS011;46879;45.658;11.814;2023-02-22T05:32:35;11.68;;;8.95;;
60999;SDS011;46879;45.658;11.814;2023-02-22T05:37:36;9.80;;;8.32;;
60999;SDS011;46879;45.658;11.814;2023-02-22T05:42:36;12.60;;;9.05;;
60999;SDS011;46879;45.658;11.814;2023-02-22T05:47:37;12.00;;;8.88;;
60999;SDS011;46879;45.658;11.814;2023-02-22T05:52:38;11.85;;;8.43;;
60999;SDS011;46879;45.658;11.814;2023-02-22T05:57:39;13.20;;;9.32;;
60999;SDS011;46879;45.658;11.814;2023-02-22T06:02:39;11.55;;;8.13;;
60999;SDS011;46879;45.658;11.814;2023-02-22T06:07:40;9.80;;;8.38;;
60999;SDS011;46879;45.658;11.814;2023-02-22T06:12:40;10.93;;;8.18;;
60999;SDS011;46879;45.658;11.814;2023-02-22T06:17:41;9.73;;;8.25;;
60999;SDS011;46879;45.658;11.814;2023-02-22T06:22:42;11.05;;;8.50;;
60999;SDS011;46879;45.658;11.814;2023-02-22T06:27:44;12.05;;;8.45;;
60999;SDS011;46879;45.658;11.814;2023-02-22T06:32:45;15.95;;;9.68;;
60999;SDS011;46879;45.658;11.814;2023-02-22T06:37:45;16.67;;;9.30;;
60999;SDS011;46879;45.658;11.814;2023-02-22T06:42:47;18.33;;;9.45;;
60999;SDS011;46879;45.658;11.814;2023-02-22T06:47:48;16.77;;;11.10;;
60999;SDS011;46879;45.658;11.814;2023-02-22T06:52:48;14.63;;;10.98;;
60999;SDS011;46879;45.658;11.814;2023-02-22T06:57:49;18.05;;;12.15;;
60999;SDS011;46879;45.658;11.814;2023-02-22T07:02:51;20.20;;;12.77;;
60999;SDS011;46879;45.658;11.814;2023-02-22T07:07:53;21.65;;;13.75;;
60999;SDS011;46879;45.658;11.814;2023-02-22T07:13:00;26.17;;;15.83;;
60999;SDS011;46879;45.658;11.814;2023-02-22T07:18:01;24.38;;;16.48;;
60999;SDS011;46879;45.658;11.814;2023-02-22T07:23:03;28.92;;;16.85;;
60999;SDS011;46879;45.658;11.814;2023-02-22T07:28:04;27.33;;;17.38;;
60999;SDS011;46879;45.658;11.814;2023-02-22T07:33:06;25.67;;;17.48;;
60999;SDS011;46879;45.658;11.814;2023-02-22T07:38:09;31.25;;;17.25;;
60999;SDS011;46879;45.658;11.814;2023-02-22T07:48:22;29.85;;;18.77;;
60999;SDS011;46879;45.658;11.814;2023-02-22T07:53:28;29.02;;;18.92;;
60999;SDS011;46879;45.658;11.814;2023-02-22T07:58:32;30.17;;;19.85;;
60999;SDS011;46879;45.658;11.814;2023-02-22T08:03:34;32.67;;;19.05;;
60999;SDS011;46879;45.658;11.814;2023-02-22T08:08:36;31.23;;;19.85;;
60999;SDS011;46879;45.658;11.814;2023-02-22T08:13:37;31.08;;;19.90;;
60999;SDS011;46879;45.658;11.814;2023-02-22T08:18:38;30.80;;;20.13;;
60999;SDS011;46879;45.658;11.814;2023-02-22T08:23:40;34.55;;;20.35;;
60999;SDS011;46879;45.658;11.814;2023-02-22T08:28:40;31.60;;;21.30;;
60999;SDS011;46879;45.658;11.814;2023-02-22T08:33:41;29.92;;;20.17;;
60999;SDS011;46879;45.658;11.814;2023-02-22T08:38:41;31.38;;;21.23;;
60999;SDS011;46879;45.658;11.814;2023-02-22T08:43:42;34.15;;;21.08;;
60999;SDS011;46879;45.658;11.814;2023-02-22T08:48:51;31.70;;;20.50;;
60999;SDS011;46879;45.658;11.814;2023-02-22T08:53:52;32.42;;;19.73;;
60999;SDS011;46879;45.658;11.814;2023-02-22T08:58:53;32.60;;;20.50;;
60999;SDS011;46879;45.658;11.814;2023-02-22T09:03:55;31.92;;;20.77;;
60999;SDS011;46879;45.658;11.814;2023-02-22T09:08:56;29.23;;;20.38;;
60999;SDS011;46879;45.658;11.814;2023-02-22T09:13:57;30.98;;;20.75;;
60999;SDS011;46879;45.658;11.814;2023-02-22T09:18:57;29.10;;;20.58;;
60999;SDS011;46879;45.658;11.814;2023-02-22T09:23:58;28.05;;;20.15;;
60999;SDS011;46879;45.658;11.814;2023-02-22T09:29:05;30.10;;;21.13;;
60999;SDS011;46879;45.658;11.814;2023-02-22T09:34:09;30.80;;;20.98;;
60999;SDS011;46879;45.658;11.814;2023-02-22T09:39:16;24.25;;;18.80;;
60999;SDS011;46879;45.658;11.814;2023-02-22T09:49:36;29.67;;;20.60;;
60999;SDS011;46879;45.658;11.814;2023-02-22T10:00:17;29.55;;;20.20;;
60999;SDS011;46879;45.658;11.814;2023-02-22T10:05:27;26.85;;;18.67;;
60999;SDS011;46879;45.658;11.814;2023-02-22T10:10:34;28.95;;;20.02;;
60999;SDS011;46879;45.658;11.814;2023-02-22T10:20:53;28.25;;;20.30;;
60999;SDS011;46879;45.658;11.814;2023-02-22T10:26:21;26.63;;;19.55;;
60999;SDS011;46879;45.658;11.814;2023-02-22T10:31:29;25.75;;;19.58;;
60999;SDS011;46879;45.658;11.814;2023-02-22T10:36:32;27.42;;;19.17;;
60999;SDS011;46879;45.658;11.814;2023-02-22T10:41:33;25.05;;;18.35;;
60999;SDS011;46879;45.658;11.814;2023-02-22T10:46:40;26.33;;;19.73;;
60999;SDS011;46879;45.658;11.814;2023-02-22T10:51:42;27.60;;;19.70;;
60999;SDS011;46879;45.658;11.814;2023-02-22T10:56:46;26.17;;;18.02;;
60999;SDS011;46879;45.658;11.814;2023-02-22T11:01:49;26.35;;;18.77;;
60999;SDS011;46879;45.658;11.814;2023-02-22T11:07:06;24.60;;;18.70;;
60999;SDS011;46879;45.658;11.814;2023-02-22T11:12:19;23.08;;;17.13;;
60999;SDS011;46879;45.658;11.814;2023-02-22T11:17:30;25.55;;;18.00;;
60999;SDS011;46879;45.658;11.814;2023-02-22T11:22:40;22.75;;;17.20;;
60999;SDS011;46879;45.658;11.814;2023-02-22T11:27:42;23.17;;;17.23;;
60999;SDS011;46879;45.658;11.814;2023-02-22T11:38:21;25.52;;;18.50;;
60999;SDS011;46879;45.658;11.814;2023-02-22T11:48:26;25.63;;;17.03;;
60999;SDS011;46879;45.658;11.814;2023-02-22T12:09:41;24.55;;;17.52;;
60999;SDS011;46879;45.658;11.814;2023-02-22T12:25:36;23.13;;;16.70;;
60999;SDS011;46879;45.658;11.814;2023-02-22T12:30:51;23.38;;;16.40;;
60999;SDS011;46879;45.658;11.814;2023-02-22T12:36:23;23.00;;;16.17;;
60999;SDS011;46879;45.658;11.814;2023-02-22T12:46:51;28.75;;;16.67;;
60999;SDS011;46879;45.658;11.814;2023-02-22T12:52:00;28.08;;;16.52;;
60999;SDS011;46879;45.658;11.814;2023-02-22T13:02:42;22.10;;;15.57;;
60999;SDS011;46879;45.658;11.814;2023-02-22T13:08:12;23.88;;;16.05;;
60999;SDS011;46879;45.658;11.814;2023-02-22T13:24:30;20.98;;;15.57;;
60999;SDS011;46879;45.658;11.814;2023-02-22T13:29:58;22.48;;;15.85;;
60999;SDS011;46879;45.658;11.814;2023-02-22T13:51:13;21.60;;;15.57;;
60999;SDS011;46879;45.658;11.814;2023-02-22T13:56:23;22.25;;;16.08;;
60999;SDS011;46879;45.658;11.814;2023-02-22T14:01:37;22.52;;;15.70;;
60999;SDS011;46879;45.658;11.814;2023-02-22T14:06:40;20.25;;;15.65;;
60999;SDS011;46879;45.658;11.814;2023-02-22T14:11:42;22.17;;;16.10;;
60999;SDS011;46879;45.658;11.814;2023-02-22T14:17:33;19.20;;;15.40;;
60999;SDS011;46879;45.658;11.814;2023-02-22T14:22:27;21.17;;;15.98;;
60999;SDS011;46879;45.658;11.814;2023-02-22T14:27:37;21.20;;;15.02;;
60999;SDS011;46879;45.658;11.814;2023-02-22T14:32:40;20.27;;;15.65;;
60999;SDS011;46879;45.658;11.814;2023-02-22T14:37:40;21.48;;;15.52;;
60999;SDS011;46879;45.658;11.814;2023-02-22T14:42:44;20.95;;;15.63;;
60999;SDS011;46879;45.658;11.814;2023-02-22T14:47:54;21.33;;;16.05;;
60999;SDS011;46879;45.658;11.814;2023-02-22T14:53:17;20.25;;;14.70;;
60999;SDS011;46879;45.658;11.814;2023-02-22T14:58:44;24.10;;;16.17;;
60999;SDS011;46879;45.658;11.814;2023-02-22T15:03:48;21.58;;;15.05;;
60999;SDS011;46879;45.658;11.814;2023-02-22T15:09:03;21.13;;;15.48;;
60999;SDS011;46879;45.658;11.814;2023-02-22T15:14:33;21.85;;;16.05;;
60999;SDS011;46879;45.658;11.814;2023-02-22T15:19:40;21.38;;;15.00;;
60999;SDS011;46879;45.658;11.814;2023-02-22T15:24:41;23.83;;;15.65;;
60999;SDS011;46879;45.658;11.814;2023-02-22T15:29:42;19.52;;;14.80;;
60999;SDS011;46879;45.658;11.814;2023-02-22T15:34:44;20.70;;;15.45;;
60999;SDS011;46879;45.658;11.814;2023-02-22T15:39:44;19.00;;;14.88;;
60999;SDS011;46879;45.658;11.814;2023-02-22T15:44:46;17.63;;;14.38;;
60999;SDS011;46879;45.658;11.814;2023-02-22T16:00:49;19.45;;;14.50;;
60999;SDS011;46879;45.658;11.814;2023-02-22T16:05:58;20.00;;;14.80;;
60999;SDS011;46879;45.658;11.814;2023-02-22T16:11:03;21.58;;;15.15;;
60999;SDS011;46879;45.658;11.814;2023-02-22T16:21:17;22.25;;;15.35;;
60999;SDS011;46879;45.658;11.814;2023-02-22T16:26:31;20.35;;;15.55;;
60999;SDS011;46879;45.658;11.814;2023-02-22T16:31:38;22.73;;;15.90;;
60999;SDS011;46879;45.658;11.814;2023-02-22T16:41:41;23.60;;;16.92;;
60999;SDS011;46879;45.658;11.814;2023-02-22T16:46:42;22.35;;;16.67;;
60999;SDS011;46879;45.658;11.814;2023-02-22T16:51:46;24.05;;;16.08;;
60999;SDS011;46879;45.658;11.814;2023-02-22T16:57:01;20.87;;;15.23;;
60999;SDS011;46879;45.658;11.814;2023-02-22T17:02:03;24.13;;;15.85;;
60999;SDS011;46879;45.658;11.814;2023-02-22T17:07:06;21.70;;;15.23;;
60999;SDS011;46879;45.658;11.814;2023-02-22T17:12:08;21.40;;;14.80;;
60999;SDS011;46879;45.658;11.814;2023-02-22T17:17:09;20.05;;;14.43;;
60999;SDS011;46879;45.658;11.814;2023-02-22T17:22:15;20.65;;;13.82;;
60999;SDS011;46879;45.658;11.814;2023-02-22T17:27:21;21.92;;;14.13;;
60999;SDS011;46879;45.658;11.814;2023-02-22T17:32:21;24.17;;;14.00;;
60999;SDS011;46879;45.658;11.814;2023-02-22T17:37:22;19.63;;;14.13;;
60999;SDS011;46879;45.658;11.814;2023-02-22T17:42:24;21.85;;;14.52;;
60999;SDS011;46879;45.658;11.814;2023-02-22T17:47:25;19.52;;;12.77;;
60999;SDS011;46879;45.658;11.814;2023-02-22T17:52:25;20.80;;;13.27;;
60999;SDS011;46879;45.658;11.814;2023-02-22T17:57:29;17.65;;;13.18;;
60999;SDS011;46879;45.658;11.814;2023-02-22T18:02:29;17.08;;;13.35;;
60999;SDS011;46879;45.658;11.814;2023-02-22T18:07:33;19.33;;;13.30;;
60999;SDS011;46879;45.658;11.814;2023-02-22T18:12:34;19.05;;;13.93;;
60999;SDS011;46879;45.658;11.814;2023-02-22T18:17:36;21.05;;;12.80;;
60999;SDS011;46879;45.658;11.814;2023-02-22T18:22:37;25.75;;;13.43;;
60999;SDS011;46879;45.658;11.814;2023-02-22T18:27:41;21.58;;;12.77;;
60999;SDS011;46879;45.658;11.814;2023-02-22T18:32:42;21.35;;;11.82;;
60999;SDS011;46879;45.658;11.814;2023-02-22T18:37:45;20.70;;;12.27;;
60999;SDS011;46879;45.658;11.814;2023-02-22T18:42:45;17.52;;;12.20;;
60999;SDS011;46879;45.658;11.814;2023-02-22T18:47:46;27.42;;;12.15;;
60999;SDS011;46879;45.658;11.814;2023-02-22T18:52:47;16.42;;;12.15;;
60999;SDS011;46879;45.658;11.814;2023-02-22T18:57:48;18.20;;;11.77;;
60999;SDS011;46879;45.658;11.814;2023-02-22T19:02:51;18.52;;;11.80;;
60999;SDS011;46879;45.658;11.814;2023-02-22T19:07:52;18.13;;;11.38;;
60999;SDS011;46879;45.658;11.814;2023-02-22T19:12:53;16.08;;;11.88;;
60999;SDS011;46879;45.658;11.814;2023-02-22T19:17:53;15.93;;;11.55;;
60999;SDS011;46879;45.658;11.814;2023-02-22T19:22:54;17.60;;;11.73;;
60999;SDS011;46879;45.658;11.814;2023-02-22T19:27:55;16.45;;;10.45;;
60999;SDS011;46879;45.658;11.814;2023-02-22T19:32:58;16.73;;;11.20;;
60999;SDS011;46879;45.658;11.814;2023-02-22T19:38:01;14.20;;;11.15;;
60999;SDS011;46879;45.658;11.814;2023-02-22T19:43:02;14.35;;;11.20;;
60999;SDS011;46879;45.658;11.814;2023-02-22T19:48:03;14.57;;;10.60;;
60999;SDS011;46879;45.658;11.814;2023-02-22T19:53:03;15.63;;;10.95;;
60999;SDS011;46879;45.658;11.814;2023-02-22T19:58:04;16.95;;;11.30;;
60999;SDS011;46879;45.658;11.814;2023-02-22T20:03:05;15.38;;;10.68;;
60999;SDS011;46879;45.658;11.814;2023-02-22T20:08:08;14.93;;;10.88;;
60999;SDS011;46879;45.658;11.814;2023-02-22T20:13:08;18.80;;;11.05;;
60999;SDS011;46879;45.658;11.814;2023-02-22T20:18:10;16.60;;;10.63;;
60999;SDS011;46879;45.658;11.814;2023-02-22T20:23:11;14.85;;;11.23;;
60999;SDS011;46879;45.658;11.814;2023-02-22T20:28:11;15.40;;;10.77;;
60999;SDS011;46879;45.658;11.814;2023-02-22T20:33:12;15.45;;;10.68;;
60999;SDS011;46879;45.658;11.814;2023-02-22T20:38:13;15.45;;;10.45;;
60999;SDS011;46879;45.658;11.814;2023-02-22T20:43:14;16.52;;;11.05;;
60999;SDS011;46879;45.658;11.814;2023-02-22T20:48:14;14.57;;;10.98;;
60999;SDS011;46879;45.658;11.814;2023-02-22T20:53:15;12.95;;;10.88;;
60999;SDS011;46879;45.658;11.814;2023-02-22T20:58:16;13.40;;;10.68;;
60999;SDS011;46879;45.658;11.814;2023-02-22T21:03:20;13.38;;;10.52;;
60999;SDS011;46879;45.658;11.814;2023-02-22T21:08:20;13.82;;;10.50;;
60999;SDS011;46879;45.658;11.814;2023-02-22T21:13:21;16.35;;;11.05;;
60999;SDS011;46879;45.658;11.814;2023-02-22T21:18:22;16.52;;;11.02;;
60999;SDS011;46879;45.658;11.814;2023-02-22T21:23:22;22.67;;;11.98;;
60999;SDS011;46879;45.658;11.814;2023-02-22T21:28:23;23.98;;;12.77;;
60999;SDS011;46879;45.658;11.814;2023-02-22T21:33:24;24.48;;;12.13;;
60999;SDS011;46879;45.658;11.814;2023-02-22T21:38:24;21.63;;;11.65;;
60999;SDS011;46879;45.658;11.814;2023-02-22T21:43:25;25.08;;;11.32;;
60999;SDS011;46879;45.658;11.814;2023-02-22T21:48:26;21.55;;;10.98;;
60999;SDS011;46879;45.658;11.814;2023-02-22T21:53:26;29.15;;;11.38;;
60999;SDS011;46879;45.658;11.814;2023-02-22T21:58:27;21.67;;;11.43;;
60999;SDS011;46879;45.658;11.814;2023-02-22T22:03:29;20.13;;;11.77;;
60999;SDS011;46879;45.658;11.814;2023-02-22T22:08:30;17.13;;;10.82;;
60999;SDS011;46879;45.658;11.814;2023-02-22T22:13:31;21.30;;;10.63;;
60999;SDS011;46879;45.658;11.814;2023-02-22T22:18:31;16.23;;;10.93;;
60999;SDS011;46879;45.658;11.814;2023-02-22T22:23:36;20.45;;;10.98;;
60999;SDS011;46879;45.658;11.814;2023-02-22T22:28:38;19.83;;;10.85;;
60999;SDS011;46879;45.658;11.814;2023-02-22T22:33:41;17.15;;;10.63;;
60999;SDS011;46879;45.658;11.814;2023-02-22T22:38:43;20.17;;;10.13;;
60999;SDS011;46879;45.658;11.814;2023-02-22T22:43:46;17.73;;;10.35;;
60999;SDS011;46879;45.658;11.814;2023-02-22T22:48:48;18.15;;;10.20;;
60999;SDS011;46879;45.658;11.814;2023-02-22T22:53:57;17.40;;;9.77;;
60999;SDS011;46879;45.658;11.814;2023-02-22T22:58:58;16.58;;;9.70;;
60999;SDS011;46879;45.658;11.814;2023-02-22T23:04:00;18.33;;;10.23;;
60999;SDS011;46879;45.658;11.814;2023-02-22T23:14:11;22.48;;;10.65;;
60999;SDS011;46879;45.658;11.814;2023-02-22T23:19:14;15.30;;;9.40;;
60999;SDS011;46879;45.658;11.814;2023-02-22T23:24:16;14.80;;;9.57;;
60999;SDS011;46879;45.658;11.814;2023-02-22T23:29:21;17.70;;;10.20;;
60999;SDS011;46879;45.658;11.814;2023-02-22T23:34:22;13.38;;;9.15;;
60999;SDS011;46879;45.658;11.814;2023-02-22T23:39:22;14.35;;;9.60;;
60999;SDS011;46879;45.658;11.814;2023-02-22T23:44:24;13.52;;;9.48;;
60999;SDS011;46879;45.658;11.814;2023-02-22T23:49:26;16.52;;;9.60;;
60999;SDS011;46879;45.658;11.814;2023-02-22T23:54:37;15.77;;;9.05;;
60999;SDS011;46879;45.658;11.814;2023-02-22T23:59:42;16.55;;;9.30;;
